FZFS weather

Karawa Airport
Karawa, Equateur Province, Congo (Kinshasa)

Public forecast

Using degrees Celsius for public forecast. Weather courtesy of forecast.io.

Closest aviation weather report (METAR) to Karawa Airport

Report is more than 6 hours old.

Closest report is Gemena Airport, 32.7 nm (60.5 km) WSW. Retrieved 2012/08/18 09:00 UTC (8 years ago):

FZFK 180900Z 29004KT 9999 BKN023 30/23 Q//// NOSIG

Closest aviation forecast (TAF) to Karawa Airport

Closest forecast is Bangui M'Poko International Airport, 123.4 nm (228.5 km) WNW. Retrieved 2020-02-17 00:33 UTC (0 seconds ago):

TAF TAF FEFF 162300Z 1700/1806 VRB02KT 6000 NSC BECMG 1702/1704 2000 BR PROB40 1705/1707 0800 FG BECMG 1708/1710 7000 NSW